createdAt,value
2022-11-25T00:01:24.459Z,1.47
2022-11-25T00:03:53.654Z,1.60
2022-11-25T00:06:25.674Z,1.50
2022-11-25T00:09:05.183Z,1.57
2022-11-25T00:11:34.332Z,1.17
2022-11-25T00:14:00.960Z,1.53
2022-11-25T00:16:27.776Z,1.87
2022-11-25T00:18:56.607Z,1.20
2022-11-25T00:21:25.936Z,1.40
2022-11-25T00:23:54.548Z,1.50
2022-11-25T00:26:22.498Z,1.50
2022-11-25T00:28:50.012Z,1.70
2022-11-25T00:31:16.597Z,1.67
2022-11-25T00:33:43.866Z,1.80
2022-11-25T00:36:31.539Z,1.63
2022-11-25T00:39:12.293Z,1.80
2022-11-25T00:41:57.788Z,1.73
2022-11-25T00:44:37.317Z,1.50
2022-11-25T00:47:16.544Z,2.10
2022-11-25T00:49:51.745Z,1.40
2022-11-25T00:52:24.599Z,1.87
2022-11-25T00:54:52.929Z,1.43
2022-11-25T00:57:23.857Z,1.80
2022-11-25T00:59:50.928Z,1.70
2022-11-25T01:02:19.627Z,1.80
2022-11-25T01:04:47.541Z,1.97
2022-11-25T01:07:14.358Z,1.70
2022-11-25T01:09:41.087Z,1.90
2022-11-25T01:12:08.111Z,1.57
2022-11-25T01:14:35.231Z,2.23
2022-11-25T01:17:02.439Z,1.80
2022-11-25T01:19:29.121Z,2.00
2022-11-25T01:21:55.811Z,2.17
2022-11-25T01:24:24.094Z,1.77
2022-11-25T01:26:51.120Z,1.53
2022-11-25T01:29:19.223Z,2.00
2022-11-25T01:31:47.191Z,1.80
2022-11-25T01:34:17.138Z,1.87
2022-11-25T01:36:43.963Z,1.60
2022-11-25T01:39:18.937Z,1.50
2022-11-25T01:41:46.016Z,1.80
2022-11-25T01:44:21.896Z,1.40
2022-11-25T01:47:05.372Z,1.30
2022-11-25T01:49:41.903Z,1.40
2022-11-25T01:52:23.474Z,1.40
2022-11-25T01:55:10.418Z,1.40
2022-11-25T01:57:48.024Z,1.77
2022-11-25T02:00:15.663Z,1.40
2022-11-25T02:02:43.056Z,1.30
2022-11-25T02:05:13.462Z,1.40
2022-11-25T02:07:43.578Z,1.77
2022-11-25T02:10:18.209Z,1.30
2022-11-25T02:12:46.543Z,1.77
2022-11-25T02:15:14.908Z,1.50
2022-11-25T02:17:43.160Z,1.60
2022-11-25T02:20:18.284Z,1.50
2022-11-25T02:22:54.050Z,1.60
2022-11-25T02:25:27.180Z,1.60
2022-11-25T02:28:08.773Z,1.70
2022-11-25T02:30:35.526Z,1.57
2022-11-25T02:33:02.432Z,1.73
2022-11-25T02:35:43.483Z,1.77
2022-11-25T02:38:26.484Z,1.50
2022-11-25T02:41:06.173Z,1.40
2022-11-25T02:43:33.445Z,1.77
2022-11-25T02:46:04.349Z,1.67
2022-11-25T02:49:06.889Z,1.30
2022-11-25T02:51:23.868Z,1.37
2022-11-25T02:53:51.266Z,1.40
2022-11-25T02:56:19.193Z,1.60
2022-11-25T02:58:45.959Z,1.60
2022-11-25T03:01:12.885Z,1.27
2022-11-25T03:03:39.601Z,1.27
2022-11-25T03:06:06.713Z,1.10
2022-11-25T03:08:33.365Z,1.10
2022-11-25T03:11:00.091Z,1.50
2022-11-25T03:13:27.407Z,1.30
2022-11-25T03:15:54.097Z,1.10
2022-11-25T03:18:20.938Z,1.60
2022-11-25T03:20:47.608Z,1.50
2022-11-25T03:23:14.294Z,1.30
2022-11-25T03:25:40.940Z,2.07
2022-11-25T03:28:07.565Z,1.47
2022-11-25T03:30:34.460Z,1.40
2022-11-25T03:33:01.209Z,1.07
2022-11-25T03:35:28.547Z,1.70
2022-11-25T03:37:55.879Z,1.60
2022-11-25T03:40:22.901Z,1.70
2022-11-25T03:42:49.782Z,1.90
2022-11-25T03:45:17.026Z,1.40
2022-11-25T03:47:44.831Z,1.60
2022-11-25T03:50:13.821Z,1.70
2022-11-25T03:52:40.713Z,1.63
2022-11-25T03:55:08.314Z,1.90
2022-11-25T03:57:35.239Z,1.40
2022-11-25T04:00:02.164Z,1.60
2022-11-25T04:02:29.056Z,1.40
2022-11-25T04:04:55.701Z,1.50
2022-11-25T04:07:22.402Z,1.13
2022-11-25T04:09:49.140Z,1.30
2022-11-25T04:12:34.247Z,1.23
2022-11-25T04:15:00.817Z,1.27
2022-11-25T04:17:27.384Z,1.07
2022-11-25T04:19:53.980Z,1.10
2022-11-25T04:22:20.522Z,1.60
2022-11-25T04:24:47.271Z,1.00
2022-11-25T04:27:13.858Z,1.30
2022-11-25T04:29:40.533Z,1.20
2022-11-25T04:32:07.155Z,1.37
2022-11-25T04:34:34.028Z,1.03
2022-11-25T04:37:00.853Z,1.17
2022-11-25T04:39:27.453Z,0.97
2022-11-25T04:42:14.003Z,1.30
2022-11-25T04:44:40.692Z,1.43
2022-11-25T04:47:07.463Z,1.50
2022-11-25T04:49:34.080Z,1.20
2022-11-25T04:52:00.959Z,1.30
2022-11-25T04:54:27.577Z,1.40
2022-11-25T04:56:54.183Z,1.13
2022-11-25T04:59:39.562Z,1.10
2022-11-25T05:02:15.148Z,1.27
2022-11-25T05:04:43.608Z,1.23
2022-11-25T05:07:10.892Z,1.10
2022-11-25T05:09:37.986Z,1.40
2022-11-25T05:12:05.853Z,1.43
2022-11-25T05:14:32.827Z,1.30
2022-11-25T05:16:59.552Z,1.20
2022-11-25T05:19:26.302Z,1.33
2022-11-25T05:21:52.904Z,1.20
2022-11-25T05:24:19.530Z,1.23
2022-11-25T05:26:46.177Z,1.30
2022-11-25T05:29:12.817Z,1.43
2022-11-25T05:31:39.459Z,1.37
2022-11-25T05:34:06.095Z,1.20
2022-11-25T05:36:32.824Z,1.20
2022-11-25T05:39:00.452Z,1.33
2022-11-25T05:41:27.688Z,1.50
2022-11-25T05:43:54.656Z,1.70
2022-11-25T05:46:21.528Z,2.67
2022-11-25T05:48:48.224Z,2.17
2022-11-25T05:51:14.869Z,1.20
2022-11-25T05:53:41.451Z,2.03
2022-11-25T05:56:09.822Z,1.60
2022-11-25T05:58:36.497Z,1.63
2022-11-25T06:01:07.953Z,1.60
2022-11-25T06:03:35.092Z,2.23
2022-11-25T06:06:02.138Z,1.80
2022-11-25T06:08:28.975Z,1.63
2022-11-25T06:10:55.564Z,1.93
2022-11-25T06:13:22.379Z,1.73
2022-11-25T06:15:49.241Z,1.90
2022-11-25T06:18:17.377Z,1.57
2022-11-25T06:20:44.628Z,1.73
2022-11-25T06:23:11.357Z,1.77
2022-11-25T06:25:37.988Z,2.00
2022-11-25T06:28:12.890Z,1.53
2022-11-25T06:30:39.943Z,1.20
2022-11-25T06:33:06.613Z,1.40
2022-11-25T06:35:33.274Z,1.37
2022-11-25T06:38:00.116Z,1.53
2022-11-25T06:40:26.762Z,1.40
2022-11-25T06:42:53.448Z,1.30
2022-11-25T06:45:20.062Z,1.63
2022-11-25T06:47:46.658Z,1.30
2022-11-25T06:50:13.315Z,1.97
2022-11-25T06:52:39.929Z,2.20
2022-11-25T06:55:06.920Z,1.23
2022-11-25T06:57:33.583Z,1.50
2022-11-25T07:00:00.236Z,1.60
2022-11-25T07:02:26.968Z,1.53
2022-11-25T07:04:53.902Z,1.40
2022-11-25T07:07:20.624Z,1.73
2022-11-25T07:09:47.797Z,1.60
2022-11-25T07:12:14.656Z,1.80
2022-11-25T07:14:41.276Z,1.60
2022-11-25T07:17:11.944Z,1.83
2022-11-25T07:19:39.077Z,1.97
2022-11-25T07:22:05.715Z,1.50
2022-11-25T07:24:33.873Z,1.90
2022-11-25T07:27:00.744Z,1.70
2022-11-25T07:30:03.175Z,2.13
2022-11-25T07:32:14.616Z,1.50
2022-11-25T07:34:41.374Z,1.53
2022-11-25T07:37:08.261Z,1.70
2022-11-25T07:39:35.380Z,2.03
2022-11-25T07:42:02.270Z,1.83
2022-11-25T07:44:28.964Z,2.03
2022-11-25T07:46:55.713Z,2.20
2022-11-25T07:49:26.072Z,2.10
2022-11-25T07:51:59.790Z,1.90
2022-11-25T07:54:26.751Z,2.00
2022-11-25T07:56:53.710Z,1.33
2022-11-25T07:59:22.871Z,1.60
2022-11-25T08:01:51.347Z,1.80
2022-11-25T08:04:20.740Z,1.90
2022-11-25T08:06:49.460Z,1.53
2022-11-25T08:09:19.436Z,2.10
2022-11-25T08:11:47.161Z,2.20
2022-11-25T08:14:14.530Z,1.40
2022-11-25T08:16:41.243Z,1.77
2022-11-25T08:19:11.650Z,1.40
2022-11-25T08:21:38.304Z,1.70
2022-11-25T08:24:05.464Z,1.57
2022-11-25T08:26:36.505Z,1.30
2022-11-25T08:29:07.447Z,1.90
2022-11-25T08:31:37.707Z,1.70
2022-11-25T08:34:07.551Z,1.90
2022-11-25T08:36:35.505Z,1.70
2022-11-25T08:39:22.614Z,1.93
2022-11-25T08:41:52.453Z,1.90
2022-11-25T08:44:19.165Z,1.90
2022-11-25T08:46:45.809Z,1.50
2022-11-25T08:49:13.437Z,1.73
2022-11-25T08:51:40.367Z,2.40
2022-11-25T08:54:08.306Z,1.90
2022-11-25T08:56:35.444Z,1.87
2022-11-25T08:59:02.727Z,1.70
2022-11-25T09:01:29.725Z,1.90
2022-11-25T09:03:57.380Z,2.17
2022-11-25T09:06:27.518Z,2.23
2022-11-25T09:08:58.888Z,2.23
2022-11-25T09:11:26.057Z,2.20
2022-11-25T09:13:52.866Z,2.30
2022-11-25T09:16:20.866Z,2.07
2022-11-25T09:18:52.406Z,2.10
2022-11-25T09:21:22.211Z,1.83
2022-11-25T09:23:51.222Z,2.10
2022-11-25T09:26:39.647Z,2.23
2022-11-25T09:29:06.621Z,1.93
2022-11-25T09:31:33.234Z,2.33
2022-11-25T09:34:00.273Z,2.10
2022-11-25T09:36:26.923Z,2.20
2022-11-25T09:38:53.593Z,1.90
2022-11-25T09:42:23.649Z,2.03
2022-11-25T09:45:33.691Z,1.80
2022-11-25T09:48:34.190Z,2.50
2022-11-25T09:51:09.863Z,2.60
2022-11-25T09:53:43.766Z,1.80
2022-11-25T09:56:17.495Z,1.90
2022-11-25T09:58:59.646Z,1.90
2022-11-25T10:01:30.623Z,2.43
2022-11-25T10:04:05.357Z,2.27
2022-11-25T10:06:53.538Z,1.83
2022-11-25T10:09:26.044Z,1.70
2022-11-25T10:12:01.103Z,2.17
2022-11-25T10:14:53.053Z,2.00
2022-11-25T10:17:31.100Z,1.30
2022-11-25T10:20:05.576Z,1.60
2022-11-25T10:22:35.673Z,1.60
2022-11-25T10:25:13.083Z,2.30
2022-11-25T10:28:03.573Z,1.40
2022-11-25T10:31:01.134Z,1.50
2022-11-25T10:33:32.060Z,1.50
2022-11-25T10:36:14.426Z,1.43
2022-11-25T10:39:02.405Z,1.60
2022-11-25T10:41:33.314Z,1.63
2022-11-25T10:43:59.976Z,1.50
2022-11-25T10:47:12.130Z,1.63
2022-11-25T10:49:50.143Z,1.97
2022-11-25T10:52:23.341Z,2.23
2022-11-25T10:55:18.376Z,1.50
2022-11-25T10:57:45.091Z,1.40
2022-11-25T11:00:34.287Z,1.87
2022-11-25T11:03:15.049Z,1.43
2022-11-25T11:05:48.992Z,2.27
2022-11-25T11:08:22.319Z,2.27
2022-11-25T11:11:13.635Z,2.87
2022-11-25T11:13:40.722Z,1.53
2022-11-25T11:16:36.200Z,1.40
2022-11-25T11:19:04.350Z,1.77
2022-11-25T11:21:34.588Z,2.07
2022-11-25T11:24:02.309Z,2.10
2022-11-25T11:26:34.622Z,2.30
2022-11-25T11:29:07.365Z,2.40
2022-11-25T11:31:41.001Z,2.13
2022-11-25T11:34:26.633Z,2.13
2022-11-25T11:36:53.151Z,2.17
2022-11-25T11:39:35.431Z,2.07
2022-11-25T11:42:19.276Z,1.63
2022-11-25T11:44:51.754Z,1.83
2022-11-25T11:47:35.581Z,1.87
2022-11-25T11:50:26.353Z,1.60
2022-11-25T11:52:59.745Z,2.33
2022-11-25T11:55:35.280Z,2.47
2022-11-25T11:58:14.041Z,2.30
2022-11-25T12:00:56.172Z,2.60
2022-11-25T12:03:25.528Z,2.17
2022-11-25T12:05:55.921Z,1.67
2022-11-25T12:09:02.701Z,1.40
2022-11-25T12:11:40.406Z,2.30
2022-11-25T12:14:35.799Z,2.30
2022-11-25T12:17:12.135Z,2.20
2022-11-25T12:19:55.190Z,1.50
2022-11-25T12:22:46.568Z,2.40
2022-11-25T12:25:35.606Z,2.33
2022-11-25T12:28:12.878Z,2.30
2022-11-25T12:31:04.792Z,2.50
2022-11-25T12:33:51.141Z,2.13
2022-11-25T12:36:39.278Z,2.87
2022-11-25T12:39:28.908Z,2.40
2022-11-25T12:41:59.996Z,2.10
2022-11-25T12:44:35.791Z,2.50
2022-11-25T12:47:02.676Z,2.40
2022-11-25T12:49:32.782Z,2.10
2022-11-25T12:52:18.215Z,2.53
2022-11-25T12:54:44.816Z,1.67
2022-11-25T12:57:19.578Z,1.90
2022-11-25T13:00:01.645Z,2.37
2022-11-25T13:03:13.709Z,2.10
2022-11-25T13:05:49.658Z,1.80
2022-11-25T13:08:37.071Z,2.43
2022-11-25T13:11:41.337Z,2.17
2022-11-25T13:14:20.487Z,2.33
2022-11-25T13:16:49.739Z,2.30
2022-11-25T13:19:19.297Z,2.10
2022-11-25T13:22:01.283Z,2.67
2022-11-25T13:24:40.588Z,2.27
2022-11-25T13:27:52.958Z,2.70
2022-11-25T13:30:31.919Z,2.63
2022-11-25T13:33:18.867Z,1.80
2022-11-25T13:36:08.003Z,2.50
2022-11-25T13:38:58.173Z,2.17
2022-11-25T13:41:33.199Z,2.30
2022-11-25T13:44:14.923Z,2.67
2022-11-25T13:46:47.960Z,2.77
2022-11-25T13:49:31.609Z,2.40
2022-11-25T13:52:03.170Z,2.60
2022-11-25T13:54:45.637Z,4.03
2022-11-25T13:57:12.144Z,8.10
2022-11-25T13:59:51.250Z,4.40
2022-11-25T14:02:29.874Z,6.23
2022-11-25T14:05:30.218Z,4.53
2022-11-25T14:08:17.914Z,5.40
2022-11-25T14:10:46.074Z,5.50
2022-11-25T14:13:46.548Z,3.70
2022-11-25T14:16:43.562Z,2.80
2022-11-25T14:22:31.924Z,2.77
2022-11-25T14:25:19.146Z,2.77
2022-11-25T14:27:52.416Z,2.53
2022-11-25T14:30:19.698Z,2.73
2022-11-25T14:33:11.518Z,3.87
2022-11-25T14:35:47.161Z,3.07
2022-11-25T14:38:19.668Z,3.70
2022-11-25T14:41:08.437Z,3.77
2022-11-25T14:43:45.508Z,2.97
2022-11-25T14:46:20.708Z,2.93
2022-11-25T14:48:55.024Z,3.60
2022-11-25T14:51:22.781Z,3.20
2022-11-25T14:53:51.306Z,7.10
2022-11-25T14:56:31.204Z,7.47
2022-11-25T14:58:59.246Z,4.80
2022-11-25T15:01:34.596Z,4.57
2022-11-25T15:04:13.449Z,4.83
2022-11-25T15:06:42.821Z,3.47
2022-11-25T15:09:30.258Z,3.67
2022-11-25T15:12:02.718Z,3.23
2022-11-25T15:14:33.982Z,3.60
2022-11-25T15:17:06.612Z,3.23
2022-11-25T15:19:36.169Z,2.37
2022-11-25T15:22:23.484Z,3.17
2022-11-25T15:24:55.396Z,4.13
2022-11-25T15:27:27.827Z,3.90
2022-11-25T15:29:57.317Z,4.10
2022-11-25T15:32:29.849Z,2.57
2022-11-25T15:35:00.260Z,3.57
2022-11-25T15:37:28.339Z,2.90
2022-11-25T15:40:56.997Z,4.20
2022-11-25T15:43:29.938Z,2.57
2022-11-25T15:46:00.548Z,3.23
2022-11-25T15:48:40.417Z,9.13
2022-11-25T15:51:43.962Z,4.93
2022-11-25T15:54:37.181Z,3.17
2022-11-25T15:57:16.772Z,5.20
2022-11-25T15:59:51.594Z,4.13
2022-11-25T16:02:47.251Z,4.30
2022-11-25T16:05:14.127Z,4.60
2022-11-25T16:07:49.810Z,4.53
2022-11-25T16:10:50.778Z,3.17
2022-11-25T16:13:22.033Z,3.20
2022-11-25T16:15:56.538Z,2.37
2022-11-25T16:18:46.662Z,2.53
2022-11-25T16:21:21.134Z,3.33
2022-11-25T16:23:51.846Z,2.50
2022-11-25T16:26:25.729Z,2.50
2022-11-25T16:28:58.166Z,2.43
2022-11-25T16:31:28.691Z,2.23
2022-11-25T16:34:02.145Z,2.80
2022-11-25T16:36:28.760Z,2.93
2022-11-25T16:38:55.407Z,2.87
2022-11-25T16:41:25.394Z,2.17
2022-11-25T16:43:52.101Z,2.63
2022-11-25T16:46:20.100Z,2.80
2022-11-25T16:48:47.405Z,2.83
2022-11-25T16:51:17.128Z,2.17
2022-11-25T16:53:44.482Z,2.67
2022-11-25T16:56:26.829Z,2.40
2022-11-25T16:58:54.807Z,2.90
2022-11-25T17:01:24.663Z,2.30
2022-11-25T17:03:51.607Z,2.17
2022-11-25T17:06:22.351Z,4.10
2022-11-25T17:08:50.545Z,2.93
2022-11-25T17:11:28.287Z,3.30
2022-11-25T17:13:56.429Z,3.90
2022-11-25T17:16:26.590Z,3.37
2022-11-25T17:18:55.301Z,4.43
2022-11-25T17:21:26.928Z,2.90
2022-11-25T17:24:11.266Z,2.60
2022-11-25T17:26:40.602Z,2.73
2022-11-25T17:29:13.450Z,3.37
2022-11-25T17:31:41.113Z,2.50
2022-11-25T17:34:13.444Z,2.63
2022-11-25T17:36:40.275Z,2.60
2022-11-25T17:39:07.108Z,2.53
2022-11-25T17:41:39.803Z,2.17
2022-11-25T17:44:09.308Z,3.33
2022-11-25T17:46:35.860Z,2.70
2022-11-25T17:49:02.491Z,2.80
2022-11-25T17:51:29.129Z,3.03
2022-11-25T17:53:55.722Z,2.80
2022-11-25T17:56:30.102Z,2.50
2022-11-25T17:59:02.314Z,2.40
2022-11-25T18:01:28.985Z,2.47
2022-11-25T18:03:55.873Z,3.40
2022-11-25T18:06:23.271Z,2.80
2022-11-25T18:08:50.023Z,3.63
2022-11-25T18:11:18.826Z,3.53
2022-11-25T18:13:47.785Z,2.80
2022-11-25T18:16:18.097Z,3.00
2022-11-25T18:18:44.903Z,3.17
2022-11-25T18:21:11.917Z,2.60
2022-11-25T18:23:38.507Z,4.07
2022-11-25T18:26:05.551Z,3.77
2022-11-25T18:28:32.835Z,3.77
2022-11-25T18:31:04.565Z,3.07
2022-11-25T18:33:31.626Z,2.70
2022-11-25T18:35:58.377Z,4.00
2022-11-25T18:38:28.267Z,3.90
2022-11-25T18:40:58.787Z,5.10
2022-11-25T18:43:30.303Z,2.90
2022-11-25T18:45:57.270Z,2.80
2022-11-25T18:48:26.265Z,2.70
2022-11-25T18:50:56.148Z,3.37
2022-11-25T18:53:23.635Z,2.80
2022-11-25T18:55:50.597Z,2.00
2022-11-25T18:58:27.121Z,3.87
2022-11-25T19:00:59.199Z,4.43
2022-11-25T19:03:26.514Z,3.23
2022-11-25T19:05:59.404Z,6.80
2022-11-25T19:08:25.997Z,5.43
2022-11-25T19:10:52.799Z,2.50
2022-11-25T19:13:26.316Z,3.33
2022-11-25T19:15:53.683Z,3.07
2022-11-25T19:18:25.666Z,3.30
2022-11-25T19:20:52.640Z,2.63
2022-11-25T19:23:30.945Z,3.93
2022-11-25T19:26:11.551Z,2.73
2022-11-25T19:28:38.310Z,3.13
2022-11-25T19:31:05.904Z,5.37
2022-11-25T19:33:38.981Z,4.17
2022-11-25T19:36:06.749Z,4.90
2022-11-25T19:38:34.926Z,4.43
2022-11-25T19:41:01.744Z,3.93
2022-11-25T19:43:28.405Z,4.17
2022-11-25T19:45:57.029Z,2.60
2022-11-25T19:48:27.132Z,4.80
2022-11-25T19:50:59.605Z,3.07
2022-11-25T19:53:33.232Z,3.00
2022-11-25T19:56:04.126Z,2.20
2022-11-25T19:58:31.240Z,3.13
2022-11-25T20:01:02.378Z,4.97
2022-11-25T20:03:31.002Z,3.47
2022-11-25T20:05:58.341Z,4.53
2022-11-25T20:08:27.375Z,3.70
2022-11-25T20:10:55.176Z,3.03
2022-11-25T20:13:23.494Z,3.53
2022-11-25T20:15:50.804Z,3.17
2022-11-25T20:18:22.369Z,3.60
2022-11-25T20:20:56.014Z,4.57
2022-11-25T20:23:43.657Z,3.80
2022-11-25T20:26:38.347Z,2.63
2022-11-25T20:29:19.166Z,3.03
2022-11-25T20:31:46.963Z,2.80
2022-11-25T20:34:14.185Z,5.67
2022-11-25T20:36:43.185Z,8.90
2022-11-25T20:39:17.693Z,4.63
2022-11-25T20:41:48.812Z,4.40
2022-11-25T20:44:15.480Z,6.50
2022-11-25T20:46:42.076Z,3.37
2022-11-25T20:49:23.666Z,3.90
2022-11-25T20:51:50.419Z,4.77
2022-11-25T20:54:17.783Z,2.70
2022-11-25T20:56:44.464Z,2.47
2022-11-25T20:59:20.388Z,1.87
2022-11-25T21:01:47.761Z,2.23
2022-11-25T21:04:14.456Z,4.17
2022-11-25T21:06:41.454Z,4.03
2022-11-25T21:09:16.525Z,2.63
2022-11-25T21:11:43.265Z,2.23
2022-11-25T21:14:18.185Z,3.53
2022-11-25T21:16:45.615Z,8.97
2022-11-25T21:19:12.498Z,6.73
2022-11-25T21:21:45.364Z,6.73
2022-11-25T21:24:32.237Z,2.77
2022-11-25T21:27:01.997Z,5.90
2022-11-25T21:29:29.854Z,6.17
2022-11-25T21:31:56.591Z,6.33
2022-11-25T21:34:23.383Z,3.17
2022-11-25T21:36:52.916Z,6.43
2022-11-25T21:39:27.908Z,4.43
2022-11-25T21:41:55.079Z,3.90
2022-11-25T21:44:28.744Z,3.07
2022-11-25T21:46:55.769Z,3.70
2022-11-25T21:49:24.138Z,3.03
2022-11-25T21:51:50.824Z,2.33
2022-11-25T21:54:17.496Z,3.03
2022-11-25T21:56:44.831Z,2.73
2022-11-25T21:59:18.595Z,2.40
2022-11-25T22:01:45.967Z,2.30
2022-11-25T22:04:15.677Z,2.00
2022-11-25T22:06:42.821Z,3.37
2022-11-25T22:09:10.496Z,2.30
2022-11-25T22:11:45.510Z,3.90
2022-11-25T22:14:18.648Z,2.43
2022-11-25T22:16:45.411Z,3.13
2022-11-25T22:19:22.836Z,4.43
2022-11-25T22:21:49.510Z,3.37
2022-11-25T22:24:17.357Z,2.70
2022-11-25T22:26:46.601Z,3.40
2022-11-25T22:29:15.410Z,2.87
2022-11-25T22:31:42.813Z,2.63
2022-11-25T22:34:20.846Z,2.80
2022-11-25T22:36:48.679Z,4.23
2022-11-25T22:39:16.851Z,5.53
2022-11-25T22:41:46.035Z,8.17
2022-11-25T22:44:19.483Z,3.27
2022-11-25T22:46:47.207Z,2.83
2022-11-25T22:49:28.901Z,2.60
2022-11-25T22:51:56.437Z,1.83
2022-11-25T22:54:23.661Z,4.33
2022-11-25T22:56:50.700Z,5.97
2022-11-25T22:59:17.300Z,2.03
2022-11-25T23:01:44.205Z,1.97
2022-11-25T23:04:20.506Z,3.47
2022-11-25T23:06:47.612Z,4.00
2022-11-25T23:09:17.123Z,4.07
2022-11-25T23:11:44.832Z,2.90
2022-11-25T23:14:12.123Z,2.23
2022-11-25T23:16:40.875Z,3.23
2022-11-25T23:19:18.321Z,2.37
2022-11-25T23:21:45.732Z,2.83
2022-11-25T23:24:15.501Z,2.50
2022-11-25T23:26:43.406Z,2.80
2022-11-25T23:29:10.165Z,2.07
2022-11-25T23:31:38.945Z,3.17
2022-11-25T23:34:07.399Z,1.93
2022-11-25T23:36:42.641Z,4.17
2022-11-25T23:39:21.681Z,3.40
2022-11-25T23:41:48.984Z,3.33
2022-11-25T23:44:22.705Z,2.17
2022-11-25T23:46:49.895Z,2.63
2022-11-25T23:49:20.563Z,2.10
2022-11-25T23:51:47.456Z,3.17
2022-11-25T23:54:16.810Z,3.50
2022-11-25T23:56:43.448Z,2.83
2022-11-25T23:59:13.821Z,3.67
